Time;durP1;ratioP1;P1;durP2;ratioP2;P2;SDS_P1;SDS_P2;PMS_P1;PMS_P2;Temp;Humidity;BMP_temperature;BMP_pressure;BME280_temperature;BME280_humidity;BME280_pressure;Samples;Min_cycle;Max_cycle;Signal;HPM_P1;HPM_P2
2022/11/11 00:01:40;;;;;;;12.32;4.57;;;;;;;10.67;90.87;102891.63;5036383;27;112990;-30
2022/11/11 00:04:06;;;;;;;9.60;3.90;;;;;;;10.64;91.19;102898.03;5037419;27;98362;-32
2022/11/11 00:06:31;;;;;;;7.95;4.20;;;;;;;10.66;90.93;102892.59;5037038;27;96474;-31
2022/11/11 00:08:56;;;;;;;5.93;3.45;;;;;;;10.62;91.32;102902.59;5035550;28;96841;-32
2022/11/11 00:11:21;;;;;;;7.32;4.22;;;;;;;10.63;91.48;102904.41;5036508;28;114075;-32
2022/11/11 00:13:47;;;;;;;9.75;4.65;;;;;;;10.61;91.17;102901.72;5036763;27;98871;-31
2022/11/11 00:16:17;;;;;;;9.55;3.83;;;;;;;10.56;91.82;102892.84;5037187;27;96801;-32
2022/11/11 00:27:12;;;;;;;9.02;4.45;;;;;;;10.51;91.90;102897.50;5037521;27;96842;-31
2022/11/11 00:29:38;;;;;;;11.40;4.82;;;;;;;10.52;91.63;102901.09;5035617;28;96807;-33
2022/11/11 00:32:23;;;;;;;7.65;4.05;;;;;;;10.51;91.59;102908.34;5034466;28;101291;-31
2022/11/11 00:37:38;;;;;;;10.13;4.70;;;;;;;10.47;91.67;102898.53;5037345;28;96858;-31
2022/11/11 00:40:04;;;;;;;9.75;4.75;;;;;;;10.51;91.92;102899.31;5035353;28;96891;-32
2022/11/11 00:42:29;;;;;;;10.20;4.90;;;;;;;10.50;91.48;102895.72;5036587;27;97929;-32
2022/11/11 00:44:55;;;;;;;11.80;5.20;;;;;;;10.47;91.78;102890.38;5036344;28;99325;-31
2022/11/11 00:52:53;;;;;;;7.85;4.05;;;;;;;10.44;92.14;102892.28;5036575;28;97093;-31
2022/11/11 00:55:18;;;;;;;9.05;4.35;;;;;;;10.45;92.05;102904.91;5036029;28;105494;-32
2022/11/11 00:57:43;;;;;;;11.80;5.20;;;;;;;10.45;91.88;102902.22;5035990;27;96612;-32
2022/11/11 01:00:09;;;;;;;12.38;4.88;;;;;;;10.44;92.56;102884.16;5035871;28;112065;-31
2022/11/11 01:02:34;;;;;;;8.63;4.45;;;;;;;10.44;92.63;102884.16;5035766;27;97989;-31
2022/11/11 01:05:00;;;;;;;10.02;5.47;;;;;;;10.44;92.79;102882.38;5035681;27;97293;-31
2022/11/11 01:07:25;;;;;;;9.32;4.30;;;;;;;10.45;92.19;102881.41;5035423;27;105333;-31
2022/11/11 01:09:51;;;;;;;10.98;4.93;;;;;;;10.43;92.21;102879.69;5036105;27;96830;-31
2022/11/11 01:12:16;;;;;;;8.82;4.15;;;;;;;10.44;92.92;102886.88;5035828;28;108104;-31
2022/11/11 01:14:41;;;;;;;9.82;4.32;;;;;;;10.42;92.54;102884.22;5036305;27;99772;-31
2022/11/11 01:17:08;;;;;;;11.18;5.20;;;;;;;10.38;92.75;102883.41;5036288;28;96500;-31
2022/11/11 01:19:34;;;;;;;10.18;5.22;;;;;;;10.39;92.69;102889.69;5035667;27;96820;-31
2022/11/11 01:21:59;;;;;;;12.90;4.82;;;;;;;10.33;92.69;102874.50;5033951;28;100656;-32
2022/11/11 01:24:24;;;;;;;11.50;5.28;;;;;;;10.39;92.85;102878.88;5035907;27;97272;-31
2022/11/11 01:26:50;;;;;;;10.63;5.88;;;;;;;10.34;92.70;102873.56;5036264;27;96509;-31
2022/11/11 01:29:15;;;;;;;9.57;4.68;;;;;;;10.34;92.63;102870.88;5036266;28;96744;-32
2022/11/11 01:31:40;;;;;;;12.75;5.85;;;;;;;10.38;92.61;102867.16;5035991;27;97371;-31
2022/11/11 01:34:06;;;;;;;11.82;5.15;;;;;;;10.33;92.84;102852.84;5035587;27;98487;-31
2022/11/11 01:36:31;;;;;;;7.35;3.95;;;;;;;10.34;92.63;102867.28;5035926;27;96700;-31
2022/11/11 01:38:59;;;;;;;12.95;5.18;;;;;;;10.30;92.93;102869.19;5036143;27;96814;-31
2022/11/11 01:41:32;;;;;;;13.13;5.32;;;;;;;10.32;92.91;102871.84;5035598;28;97632;-31
2022/11/11 01:44:03;;;;;;;12.35;5.90;;;;;;;10.30;92.80;102869.19;5035718;27;97830;-33
2022/11/11 01:46:34;;;;;;;8.18;3.85;;;;;;;10.31;93.05;102870.97;5033927;28;96635;-31
2022/11/11 01:49:35;;;;;;;12.50;5.45;;;;;;;10.32;92.81;102879.97;5033999;28;96681;-31
2022/11/11 01:52:30;;;;;;;9.43;5.20;;;;;;;10.31;92.53;102867.38;5026765;28;97986;-31
2022/11/11 01:54:57;;;;;;;9.00;4.38;;;;;;;10.28;92.87;102879.19;5035425;28;97380;-33
2022/11/11 01:57:41;;;;;;;8.88;4.68;;;;;;;10.28;92.77;102873.75;5035384;27;96701;-31
2022/11/11 02:00:10;;;;;;;10.32;4.63;;;;;;;10.31;92.54;102880.91;5035458;27;96683;-31
2022/11/11 02:02:53;;;;;;;11.15;5.00;;;;;;;10.30;92.60;102890.88;5033557;28;102506;-31
2022/11/11 02:08:12;;;;;;;9.45;5.15;;;;;;;10.29;92.60;102880.94;5032966;28;96624;-31
2022/11/11 02:10:44;;;;;;;8.68;4.63;;;;;;;10.28;92.71;102880.97;5034089;28;96791;-31
2022/11/11 02:15:57;;;;;;;13.18;5.03;;;;;;;10.26;92.86;102872.00;5033360;28;97022;-31
2022/11/11 02:18:22;;;;;;;8.43;4.43;;;;;;;10.28;93.08;102875.56;5035273;27;96639;-32
2022/11/11 02:20:48;;;;;;;9.77;4.65;;;;;;;10.25;93.02;102863.00;5034878;27;96851;-31
2022/11/11 02:23:35;;;;;;;14.05;4.68;;;;;;;10.28;93.07;102875.56;5035018;27;98032;-31
2022/11/11 02:26:02;;;;;;;12.90;4.97;;;;;;;10.26;93.00;102872.00;5035115;28;97946;-31
2022/11/11 02:28:30;;;;;;;13.65;5.93;;;;;;;10.25;92.79;102867.50;5033655;28;96566;-32
2022/11/11 02:30:56;;;;;;;16.02;5.95;;;;;;;10.20;93.18;102859.50;5034048;28;96899;-31
2022/11/11 02:33:21;;;;;;;14.23;5.97;;;;;;;10.19;93.04;102850.47;5033714;27;124620;-31
2022/11/11 02:35:57;;;;;;;12.88;6.53;;;;;;;10.16;93.33;102853.28;5034572;27;99184;-31
2022/11/11 02:38:24;;;;;;;13.00;5.25;;;;;;;10.17;93.43;102859.59;5034634;27;97086;-31
2022/11/11 02:43:33;;;;;;;13.20;5.68;;;;;;;10.13;93.84;102858.78;5032443;28;97213;-31
2022/11/11 02:46:01;;;;;;;12.52;5.43;;;;;;;10.15;93.11;102869.56;5034227;28;112123;-32
2022/11/11 02:48:27;;;;;;;13.60;6.25;;;;;;;10.14;93.39;102874.09;5034968;27;96490;-31
2022/11/11 02:50:53;;;;;;;8.75;4.88;;;;;;;10.13;93.57;102872.34;5033466;28;96871;-31
2022/11/11 02:53:19;;;;;;;12.38;5.75;;;;;;;10.11;93.43;102862.47;5033140;28;101138;-31
2022/11/11 02:55:44;;;;;;;14.05;5.60;;;;;;;10.09;93.71;102867.03;5034750;28;97513;-31
2022/11/11 02:58:10;;;;;;;12.57;5.53;;;;;;;10.13;93.60;102866.00;5034854;27;96573;-32
2022/11/11 03:00:35;;;;;;;13.43;5.45;;;;;;;10.09;93.78;102854.38;5033405;28;96970;-31
2022/11/11 03:03:00;;;;;;;12.35;4.97;;;;;;;10.10;93.70;102866.09;5033731;27;97903;-31
2022/11/11 03:05:26;;;;;;;9.50;5.57;;;;;;;10.12;93.30;102858.81;5033898;28;113928;-31
2022/11/11 03:07:51;;;;;;;13.73;5.60;;;;;;;10.08;93.08;102849.91;5034876;28;96658;-31
2022/11/11 03:10:16;;;;;;;8.70;4.57;;;;;;;10.08;93.48;102858.03;5034273;27;98556;-31
2022/11/11 03:12:42;;;;;;;11.15;5.75;;;;;;;10.05;93.26;102857.22;5034489;27;97862;-31
2022/11/11 03:15:07;;;;;;;9.05;4.57;;;;;;;10.03;93.87;102862.66;5033720;27;107090;-31
2022/11/11 03:17:39;;;;;;;10.80;5.30;;;;;;;10.05;93.47;102868.03;5034357;27;96547;-32
2022/11/11 03:23:10;;;;;;;10.32;5.00;;;;;;;10.00;93.69;102865.47;5034290;27;97110;-32
2022/11/11 03:25:44;;;;;;;15.35;5.47;;;;;;;10.01;93.61;102883.50;5032826;28;100896;-32
2022/11/11 03:28:18;;;;;;;10.68;5.32;;;;;;;10.04;93.57;102877.13;5037230;27;96785;-32
2022/11/11 03:30:45;;;;;;;11.35;5.43;;;;;;;10.00;93.44;102876.28;5036409;28;96909;-32
2022/11/11 03:33:11;;;;;;;9.65;5.03;;;;;;;10.02;93.52;102878.97;5019381;28;101009;-32
2022/11/11 03:35:37;;;;;;;9.43;5.15;;;;;;;9.98;93.32;102870.91;5036022;28;100886;-32
2022/11/11 03:38:23;;;;;;;17.48;5.60;;;;;;;10.03;93.43;102878.91;5037538;27;96558;-31
2022/11/11 03:40:55;;;;;;;10.15;4.88;;;;;;;10.01;93.58;102875.38;5037810;27;96637;-31
2022/11/11 03:43:23;;;;;;;10.80;4.43;;;;;;;9.98;94.10;102884.44;5036100;28;101556;-31
2022/11/11 03:45:49;;;;;;;11.13;4.72;;;;;;;9.97;93.98;102881.78;5036273;28;100779;-31
2022/11/11 03:48:15;;;;;;;8.55;4.85;;;;;;;9.99;93.72;102882.66;5036292;28;96470;-31
2022/11/11 03:50:41;;;;;;;11.07;4.72;;;;;;;9.98;93.97;102884.44;5037473;27;96500;-32
2022/11/11 03:53:06;;;;;;;8.18;4.07;;;;;;;9.98;93.86;102883.56;5036895;28;97937;-31
2022/11/11 03:55:32;;;;;;;13.95;6.00;;;;;;;9.96;94.34;102877.28;5035915;28;101078;-31
2022/11/11 03:57:58;;;;;;;8.23;4.13;;;;;;;9.98;94.16;102892.56;5037574;28;96652;-31
2022/11/11 04:00:25;;;;;;;9.45;4.95;;;;;;;10.00;93.96;102893.41;5037391;27;96896;-30
2022/11/11 04:11:14;;;;;;;8.77;4.38;;;;;;;10.04;93.75;102910.47;5037824;28;96502;-32
2022/11/11 04:16:25;;;;;;;8.93;4.55;;;;;;;10.01;93.95;102899.75;5037153;28;96931;-31
2022/11/11 04:21:44;;;;;;;14.38;5.15;;;;;;;10.06;93.69;102902.31;5036767;28;96461;-31
2022/11/11 04:27:00;;;;;;;9.38;4.55;;;;;;;9.99;93.81;102901.59;5037234;28;97102;-32
2022/11/11 04:29:30;;;;;;;12.57;4.65;;;;;;;9.99;93.95;102896.19;5035568;28;96695;-31
2022/11/11 04:34:52;;;;;;;14.55;4.28;;;;;;;9.97;93.35;102890.81;5035090;28;97015;-31
2022/11/11 04:37:18;;;;;;;;;;;;;;;9.97;93.36;102890.81;5019485;27;100968;-31
2022/11/11 04:42:29;;;;;;;8.13;4.55;;;;;;;9.95;93.58;102889.06;5036954;28;96523;-31
2022/11/11 04:47:52;;;;;;;8.75;3.90;;;;;;;9.88;93.74;102884.72;5036567;28;96980;-31
2022/11/11 04:50:17;;;;;;;10.48;4.50;;;;;;;9.81;94.26;102878.59;5036483;27;97072;-31
2022/11/11 04:52:43;;;;;;;9.50;4.82;;;;;;;9.82;94.06;102877.69;5036283;27;96770;-33
2022/11/11 04:57:52;;;;;;;7.30;3.72;;;;;;;9.76;94.58;102881.41;5035269;28;97013;-31
2022/11/11 05:00:18;;;;;;;9.63;4.15;;;;;;;9.74;94.55;102868.84;5036146;28;101430;-32
2022/11/11 05:08:54;;;;;;;7.70;4.20;;;;;;;9.68;94.28;102864.50;5036753;28;97040;-31
2022/11/11 05:10:58;;;;;;;11.13;3.63;;;;;;;9.64;94.59;102860.06;5036047;28;96474;-32
2022/11/11 05:21:43;;;;;;;13.50;4.28;;;;;;;9.59;94.63;102877.38;5035730;27;96480;-33
2022/11/11 05:26:52;;;;;;;8.35;3.75;;;;;;;9.59;94.67;102867.44;5036103;28;97060;-31
2022/11/11 05:29:17;;;;;;;8.38;3.95;;;;;;;9.60;94.59;102871.88;5035485;28;115665;-31
2022/11/11 05:31:42;;;;;;;10.05;4.40;;;;;;;9.57;94.68;102871.97;5036076;27;96591;-31
2022/11/11 05:34:08;;;;;;;7.80;4.18;;;;;;;9.58;94.67;102873.75;5035851;28;96855;-31
2022/11/11 05:36:33;;;;;;;7.15;3.25;;;;;;;9.61;94.97;102881.81;5034930;27;104705;-32
2022/11/11 05:38:59;;;;;;;7.18;3.65;;;;;;;9.57;94.80;102877.38;5035777;28;97940;-31
2022/11/11 05:41:24;;;;;;;9.27;4.05;;;;;;;9.54;95.01;102877.47;5036100;27;96716;-31
2022/11/11 05:43:49;;;;;;;9.73;3.95;;;;;;;9.53;94.87;102879.28;5035964;27;96965;-31
2022/11/11 05:46:14;;;;;;;7.43;4.43;;;;;;;9.54;95.08;102882.88;5035918;27;100140;-31
2022/11/11 05:49:13;;;;;;;8.80;4.07;;;;;;;9.52;94.85;102882.03;5035237;28;101604;-31
2022/11/11 05:51:28;;;;;;;8.98;3.40;;;;;;;9.51;95.29;102891.06;5035250;28;96782;-33
2022/11/11 05:53:55;;;;;;;6.50;3.72;;;;;;;9.55;94.94;102906.28;5036070;27;96731;-31
2022/11/11 05:56:20;;;;;;;6.05;3.03;;;;;;;9.55;95.00;102892.75;5033735;28;101061;-32
2022/11/11 05:58:45;;;;;;;6.80;3.45;;;;;;;9.59;94.91;102904.41;5035234;27;99257;-31
2022/11/11 06:01:11;;;;;;;6.40;4.20;;;;;;;9.61;94.71;102906.16;5035128;27;96633;-31
2022/11/11 06:03:36;;;;;;;6.05;3.35;;;;;;;9.61;94.70;102911.56;5035375;28;96795;-31
2022/11/11 06:06:01;;;;;;;10.10;4.57;;;;;;;9.59;94.91;102910.72;5035083;28;107501;-32
2022/11/11 06:08:27;;;;;;;7.90;3.78;;;;;;;9.57;94.62;102916.16;5035436;27;97740;-32
2022/11/11 06:10:52;;;;;;;7.63;4.32;;;;;;;9.60;94.60;102917.00;5035860;28;96604;-31
2022/11/11 06:13:18;;;;;;;12.25;4.15;;;;;;;9.61;94.45;102918.81;5035345;27;96965;-31
2022/11/11 06:15:43;;;;;;;7.88;4.65;;;;;;;9.59;94.58;102917.94;5034804;27;97904;-31
2022/11/11 06:18:08;;;;;;;8.57;3.83;;;;;;;9.60;94.44;102909.78;5035071;28;108092;-31
2022/11/11 06:20:34;;;;;;;7.60;4.47;;;;;;;9.64;94.62;102910.59;5034970;27;96514;-31
2022/11/11 06:23:01;;;;;;;12.35;5.18;;;;;;;9.64;94.25;102907.91;5035272;27;96784;-32
2022/11/11 06:28:13;;;;;;;7.45;3.40;;;;;;;9.62;94.24;102912.44;5035069;28;97014;-33
2022/11/11 06:30:39;;;;;;;6.63;3.60;;;;;;;9.61;94.54;102922.41;5033797;28;96575;-33
2022/11/11 06:33:08;;;;;;;10.27;3.55;;;;;;;9.59;94.21;102924.25;5033655;28;96707;-31
2022/11/11 06:35:39;;;;;;;7.10;4.18;;;;;;;9.60;94.34;102934.13;5033203;27;101264;-31
2022/11/11 06:38:06;;;;;;;6.38;3.30;;;;;;;9.60;94.58;102933.25;5033118;28;101078;-31
2022/11/11 06:40:32;;;;;;;7.93;4.45;;;;;;;9.57;94.54;102934.22;5033553;28;96568;-32
2022/11/11 06:42:58;;;;;;;13.05;5.75;;;;;;;9.53;94.33;102933.41;5033927;28;96878;-31
2022/11/11 06:45:26;;;;;;;9.73;4.47;;;;;;;9.56;94.24;102932.44;5033317;28;100991;-31
2022/11/11 06:47:52;;;;;;;7.55;3.97;;;;;;;9.53;94.39;102932.50;5032959;28;100856;-33
2022/11/11 06:50:18;;;;;;;9.55;3.88;;;;;;;9.51;94.39;102921.72;5032895;28;96567;-31
2022/11/11 06:52:43;;;;;;;10.13;4.18;;;;;;;9.50;94.43;102928.03;5032798;28;96782;-31
2022/11/11 06:55:09;;;;;;;8.80;4.30;;;;;;;9.48;94.40;102920.91;5034061;27;97400;-31
2022/11/11 06:57:35;;;;;;;12.30;5.18;;;;;;;9.48;94.51;102927.19;5032808;28;100734;-31
2022/11/11 07:00:00;;;;;;;7.38;3.97;;;;;;;9.50;94.47;102928.03;5034645;28;96623;-31
2022/11/11 07:02:26;;;;;;;8.32;3.78;;;;;;;9.48;94.36;102931.72;5036798;27;96847;-31
2022/11/11 07:04:51;;;;;;;8.73;4.55;;;;;;;9.44;94.40;102933.63;5037871;27;99260;-31
2022/11/11 07:07:16;;;;;;;9.38;3.75;;;;;;;9.48;94.23;102943.41;5038704;27;97306;-31
2022/11/11 07:09:42;;;;;;;7.85;4.00;;;;;;;9.47;94.30;102940.78;5037959;27;96601;-32
2022/11/11 07:12:08;;;;;;;7.65;3.85;;;;;;;9.50;94.23;102946.09;5034154;28;97034;-30
2022/11/11 07:14:33;;;;;;;7.82;4.57;;;;;;;9.48;94.23;102951.53;5035115;28;98674;-31
2022/11/11 07:16:59;;;;;;;6.78;3.60;;;;;;;9.47;94.33;102948.88;5035776;27;99722;-32
2022/11/11 07:19:24;;;;;;;4.00;2.55;;;;;;;9.44;94.54;102955.25;5036602;27;97062;-32
2022/11/11 07:21:49;;;;;;;6.80;3.83;;;;;;;9.46;94.37;102952.50;5036078;27;96874;-33
2022/11/11 07:24:14;;;;;;;11.57;5.25;;;;;;;9.44;94.29;102952.56;5036092;27;105982;-31
2022/11/11 07:26:41;;;;;;;8.40;4.00;;;;;;;9.47;94.30;102963.28;5037430;27;97276;-30
2022/11/11 07:29:06;;;;;;;9.35;4.85;;;;;;;9.44;94.30;102963.38;5037865;27;96680;-31
2022/11/11 07:31:32;;;;;;;9.82;3.78;;;;;;;9.39;94.43;102953.56;5038550;28;96697;-32
2022/11/11 07:33:57;;;;;;;11.63;3.75;;;;;;;9.42;94.24;102965.22;5037779;27;97972;-30
2022/11/11 07:36:22;;;;;;;6.47;3.85;;;;;;;9.42;94.61;102972.44;5037497;28;103903;-31
2022/11/11 07:38:48;;;;;;;9.80;3.60;;;;;;;9.36;94.55;102960.81;5037447;27;96591;-31
2022/11/11 07:41:13;;;;;;;10.57;4.43;;;;;;;9.38;94.54;102970.72;5037449;28;96897;-30
2022/11/11 07:43:38;;;;;;;9.75;4.65;;;;;;;9.34;94.57;102962.69;5037586;27;97853;-32
2022/11/11 07:46:04;;;;;;;7.78;3.55;;;;;;;9.36;94.81;102966.22;5037451;28;98018;-30
2022/11/11 07:48:29;;;;;;;9.80;5.03;;;;;;;9.40;94.28;102977.88;5037611;28;96752;-30
2022/11/11 07:50:54;;;;;;;10.25;4.07;;;;;;;9.39;95.08;102976.13;5037570;28;96858;-30
2022/11/11 07:53:20;;;;;;;7.53;4.25;;;;;;;9.43;94.57;102974.22;5037184;27;99244;-32
2022/11/11 07:55:45;;;;;;;9.10;4.28;;;;;;;9.47;94.43;102984.06;5037648;27;97761;-30
2022/11/11 07:58:11;;;;;;;7.78;4.40;;;;;;;9.41;94.77;102976.06;5037479;28;96667;-30
2022/11/11 08:00:36;;;;;;;8.40;4.57;;;;;;;9.44;94.76;102982.31;5036146;28;96787;-31
2022/11/11 08:03:02;;;;;;;11.98;4.60;;;;;;;9.48;94.58;102985.81;5036315;27;98846;-30
2022/11/11 08:05:27;;;;;;;14.98;5.85;;;;;;;9.48;94.60;102992.09;5037200;27;97783;-30
2022/11/11 08:07:52;;;;;;;10.40;4.43;;;;;;;9.48;94.31;102983.13;5037566;28;96566;-31
2022/11/11 08:10:18;;;;;;;8.85;4.65;;;;;;;9.51;94.30;102989.34;5037043;27;96814;-30
2022/11/11 08:15:27;;;;;;;6.90;3.80;;;;;;;9.57;94.40;103001.84;5037055;28;96992;-32
2022/11/11 08:17:53;;;;;;;8.48;4.82;;;;;;;9.59;94.59;103009.94;5037179;27;96553;-31
2022/11/11 08:20:18;;;;;;;16.13;4.15;;;;;;;9.59;94.55;103016.22;5036413;28;101128;-31
2022/11/11 08:22:44;;;;;;;8.55;4.38;;;;;;;9.62;94.22;103012.56;5036803;27;97959;-32
2022/11/11 08:25:15;;;;;;;6.47;3.35;;;;;;;9.57;94.59;103016.25;5037348;27;96652;-30
2022/11/11 08:27:40;;;;;;;8.27;4.10;;;;;;;9.58;94.66;103014.44;5035187;28;96495;-31
2022/11/11 08:30:07;;;;;;;7.43;3.70;;;;;;;9.57;94.68;103023.50;5037196;27;96850;-30
2022/11/11 08:32:33;;;;;;;7.25;3.90;;;;;;;9.61;94.69;103027.03;5035161;28;100685;-30
2022/11/11 08:34:58;;;;;;;7.53;4.18;;;;;;;9.63;94.62;103034.19;5036802;28;97451;-30
2022/11/11 08:37:23;;;;;;;8.25;3.78;;;;;;;9.66;94.22;103033.22;5036584;28;96715;-30
2022/11/11 08:39:51;;;;;;;6.53;3.60;;;;;;;9.66;94.42;103031.41;5036882;27;96773;-30
2022/11/11 08:42:17;;;;;;;9.35;4.43;;;;;;;9.67;94.06;103035.88;5036644;28;97954;-31
2022/11/11 08:44:42;;;;;;;8.32;3.55;;;;;;;9.73;94.13;103034.88;5035482;28;100826;-31
2022/11/11 08:47:08;;;;;;;14.45;5.05;;;;;;;9.75;93.92;103033.03;5036790;27;96637;-31
2022/11/11 08:49:33;;;;;;;9.93;4.32;;;;;;;9.79;93.64;103037.41;5036938;27;96791;-31
2022/11/11 08:51:58;;;;;;;8.30;3.38;;;;;;;9.84;93.79;103040.03;5035608;27;97931;-30
2022/11/11 08:54:24;;;;;;;10.00;4.22;;;;;;;9.86;93.77;103032.75;5036469;27;98065;-32
2022/11/11 08:56:49;;;;;;;8.02;3.88;;;;;;;9.88;93.72;103041.75;5035286;28;96694;-30
2022/11/11 08:59:14;;;;;;;8.45;3.45;;;;;;;9.87;93.71;103029.16;5036440;28;96814;-30
2022/11/11 09:01:40;;;;;;;6.82;3.63;;;;;;;9.90;93.37;103038.06;5036169;27;97535;-30
2022/11/11 09:04:05;;;;;;;10.07;3.75;;;;;;;9.91;93.24;103037.13;5036342;27;97761;-32
2022/11/11 09:06:31;;;;;;;6.15;3.38;;;;;;;9.92;93.39;103041.63;5036303;27;96865;-30
2022/11/11 09:08:56;;;;;;;6.90;4.00;;;;;;;9.89;93.44;103039.00;5036938;27;96806;-31
2022/11/11 09:11:21;;;;;;;8.65;3.83;;;;;;;9.92;93.75;103055.16;5035969;28;105928;-30
2022/11/11 09:13:47;;;;;;;6.50;3.28;;;;;;;9.92;93.70;103054.28;5035962;27;99455;-32
2022/11/11 09:16:13;;;;;;;6.65;3.80;;;;;;;9.96;93.80;103066.81;5035848;27;96747;-30
2022/11/11 09:18:39;;;;;;;10.45;4.60;;;;;;;9.95;93.71;103056.91;5036354;28;96804;-30
2022/11/11 09:21:04;;;;;;;8.02;3.35;;;;;;;9.98;93.64;103062.25;5033705;28;100560;-31
2022/11/11 09:23:29;;;;;;;6.47;3.88;;;;;;;10.00;93.63;103071.22;5035882;27;98574;-31
2022/11/11 09:25:57;;;;;;;8.85;4.35;;;;;;;10.04;93.71;103077.47;5035791;27;96430;-30
2022/11/11 09:28:23;;;;;;;7.05;3.55;;;;;;;9.99;93.50;103066.75;5034564;28;96900;-31
2022/11/11 09:30:48;;;;;;;6.93;3.17;;;;;;;9.97;93.47;103077.59;5034373;28;101230;-31
2022/11/11 09:33:15;;;;;;;9.18;3.97;;;;;;;9.96;93.41;103074.91;5036250;27;97805;-30
2022/11/11 09:35:40;;;;;;;8.82;3.88;;;;;;;9.98;93.13;103079.38;5034439;28;96747;-30
2022/11/11 09:38:06;;;;;;;7.97;3.85;;;;;;;9.95;93.30;103073.16;5034452;27;96908;-30
2022/11/11 09:40:40;;;;;;;9.45;4.15;;;;;;;9.95;93.06;103079.44;5035327;27;97474;-31
2022/11/11 09:43:23;;;;;;;9.45;3.53;;;;;;;9.91;93.78;103079.56;5034115;28;101009;-31
2022/11/11 09:46:02;;;;;;;5.25;2.83;;;;;;;9.83;93.66;103090.56;5034453;28;96627;-33
2022/11/11 09:49:01;;;;;;;6.53;3.72;;;;;;;9.86;93.55;103090.47;5034417;28;96765;-31
2022/11/11 09:51:46;;;;;;;8.48;3.50;;;;;;;9.84;93.70;103083.31;5034178;28;98925;-31
2022/11/11 09:54:17;;;;;;;6.60;4.03;;;;;;;9.89;93.70;103100.34;5034390;28;101136;-31
2022/11/11 09:56:44;;;;;;;6.82;3.28;;;;;;;9.97;93.64;103098.38;5035599;27;96724;-31
2022/11/11 09:59:15;;;;;;;8.77;4.30;;;;;;;10.02;93.28;103101.00;5034468;28;96805;-31
2022/11/11 10:01:44;;;;;;;8.40;4.05;;;;;;;9.94;93.08;103099.34;5035410;27;98099;-30
2022/11/11 10:04:31;;;;;;;11.75;4.10;;;;;;;9.94;93.26;103101.16;5033909;28;101413;-31
2022/11/11 10:07:06;;;;;;;8.27;4.07;;;;;;;9.92;93.47;103111.13;5033583;28;96813;-31
2022/11/11 10:09:41;;;;;;;9.63;3.75;;;;;;;9.91;93.17;103109.34;5034147;28;96600;-30
2022/11/11 10:12:14;;;;;;;7.63;3.25;;;;;;;9.94;93.42;103109.28;5033756;28;101012;-30
2022/11/11 10:14:49;;;;;;;11.10;4.50;;;;;;;9.97;93.30;103106.50;5033573;28;100974;-30
2022/11/11 10:17:20;;;;;;;5.32;2.63;;;;;;;9.99;93.34;103112.78;5035288;27;96882;-31
2022/11/11 10:19:56;;;;;;;8.32;3.75;;;;;;;9.97;92.93;103114.63;5035479;28;96823;-30
2022/11/11 10:22:26;;;;;;;8.05;3.50;;;;;;;10.01;92.91;103105.53;5033524;28;100986;-31
2022/11/11 10:25:06;;;;;;;6.05;3.58;;;;;;;10.05;93.08;103115.31;5033985;28;100745;-31
2022/11/11 10:27:32;;;;;;;5.60;3.15;;;;;;;10.07;93.07;103116.19;5033871;28;96643;-30
2022/11/11 10:30:00;;;;;;;5.53;3.33;;;;;;;10.14;92.83;103119.66;5033417;28;96940;-31
2022/11/11 10:32:31;;;;;;;6.72;3.53;;;;;;;10.19;92.57;103109.59;5032989;28;100895;-30
2022/11/11 10:35:11;;;;;;;6.80;3.30;;;;;;;10.24;92.81;103109.50;5033405;28;100907;-31
2022/11/11 10:37:41;;;;;;;8.15;4.13;;;;;;;10.29;92.48;103113.00;5032593;28;96611;-30
2022/11/11 10:40:21;;;;;;;6.45;3.97;;;;;;;10.28;91.77;103125.66;5033499;28;96882;-31
2022/11/11 10:42:47;;;;;;;8.63;4.10;;;;;;;10.29;92.16;103119.31;5033188;28;101122;-31
2022/11/11 10:45:38;;;;;;;8.30;3.53;;;;;;;10.34;92.20;103130.03;5034701;27;97792;-30
2022/11/11 10:48:17;;;;;;;6.00;2.97;;;;;;;10.33;91.68;103129.16;5034885;28;96657;-31
2022/11/11 10:51:09;;;;;;;9.90;3.22;;;;;;;10.38;91.62;103126.34;5035372;28;96653;-31
2022/11/11 10:53:55;;;;;;;7.47;3.47;;;;;;;10.41;91.63;103126.25;5031673;28;97478;-31
2022/11/11 10:56:32;;;;;;;5.25;3.25;;;;;;;10.48;91.56;103122.47;5034806;27;97881;-31
2022/11/11 10:59:01;;;;;;;5.05;2.58;;;;;;;10.52;91.42;103117.88;5032658;28;96725;-31
2022/11/11 11:01:40;;;;;;;6.60;2.90;;;;;;;10.56;91.13;103125.00;5034873;28;96816;-31
2022/11/11 11:04:13;;;;;;;6.03;3.30;;;;;;;10.60;91.22;103115.84;5032995;27;101055;-30
2022/11/11 11:06:43;;;;;;;6.28;2.92;;;;;;;10.65;91.14;103113.91;5032976;28;101254;-30
2022/11/11 11:09:18;;;;;;;9.05;3.70;;;;;;;10.70;90.85;103117.44;5033317;28;96620;-30
2022/11/11 11:11:47;;;;;;;4.32;2.65;;;;;;;10.67;90.02;103122.03;5033186;28;96776;-30
2022/11/11 11:14:20;;;;;;;7.30;3.30;;;;;;;10.63;90.49;103124.81;5034788;28;97346;-30
2022/11/11 11:16:54;;;;;;;5.63;2.78;;;;;;;10.60;90.55;103121.28;5032950;28;101119;-32
2022/11/11 11:19:24;;;;;;;6.60;3.15;;;;;;;10.54;90.52;103119.63;5033020;28;96666;-31
2022/11/11 11:22:01;;;;;;;8.27;3.88;;;;;;;10.50;90.79;103114.31;5032653;28;96880;-31
2022/11/11 11:24:27;;;;;;;5.85;2.72;;;;;;;10.48;90.96;103106.22;5032392;28;101003;-30
2022/11/11 11:26:58;;;;;;;5.70;3.08;;;;;;;10.47;90.79;103112.56;5033965;27;99189;-31
2022/11/11 11:29:26;;;;;;;6.03;2.92;;;;;;;10.54;90.72;103108.78;5033125;28;96603;-30
2022/11/11 11:31:52;;;;;;;11.63;3.25;;;;;;;10.63;90.37;103099.53;5033043;28;96822;-31
2022/11/11 11:34:17;;;;;;;6.47;2.67;;;;;;;10.75;89.95;103103.72;5034148;28;97407;-34
2022/11/11 11:36:43;;;;;;;6.03;2.95;;;;;;;10.82;89.59;103102.63;5033513;28;108848;-31
2022/11/11 11:39:08;;;;;;;5.57;3.00;;;;;;;10.88;89.20;103101.59;5034134;27;96636;-31
2022/11/11 11:41:39;;;;;;;6.38;3.10;;;;;;;10.93;89.11;103088.81;5034900;27;96840;-31
2022/11/11 11:44:30;;;;;;;5.03;2.55;;;;;;;11.02;88.72;103097.56;5032558;28;100926;-31
2022/11/11 11:47:13;;;;;;;5.22;2.47;;;;;;;11.13;88.60;103094.59;5033903;27;97887;-31
2022/11/11 11:50:15;;;;;;;5.75;2.58;;;;;;;11.29;87.83;103100.44;5035723;28;96545;-31
2022/11/11 11:53:10;;;;;;;5.35;2.63;;;;;;;11.46;87.15;103098.16;5037680;28;97044;-31
2022/11/11 11:55:47;;;;;;;5.43;2.90;;;;;;;11.46;86.65;103091.81;5022757;28;99381;-31
2022/11/11 11:58:39;;;;;;;7.60;2.88;;;;;;;11.63;86.58;103084.09;5035919;28;99505;-30
2022/11/11 12:01:50;;;;;;;4.88;2.75;;;;;;;11.79;85.86;103086.31;5037790;28;96486;-30
2022/11/11 12:04:53;;;;;;;4.28;2.42;;;;;;;11.89;85.13;103090.56;5015642;28;99165;-31
2022/11/11 12:07:33;;;;;;;;;;;;;;;12.02;85.20;103083.81;5037618;28;98526;-30
2022/11/11 12:10:29;;;;;;;4.30;1.92;;;;;;;12.16;85.12;103087.94;5037564;27;97703;-30
2022/11/11 12:13:25;;;;;;;6.90;2.60;;;;;;;12.29;84.29;103087.47;5035968;28;96609;-33
2022/11/11 12:16:05;;;;;;;3.78;2.53;;;;;;;12.31;83.99;103085.59;5035653;28;96687;-30
2022/11/11 12:19:01;;;;;;;11.00;3.15;;;;;;;12.36;84.20;103084.56;5034947;28;101297;-30
2022/11/11 12:21:39;;;;;;;4.57;2.60;;;;;;;12.47;84.52;103083.25;5035163;27;100784;-30
2022/11/11 12:24:17;;;;;;;5.32;3.00;;;;;;;12.57;83.92;103082.94;5035843;28;96611;-31
2022/11/11 12:26:52;;;;;;;4.53;2.75;;;;;;;12.64;83.58;103076.38;5035652;28;97115;-30
2022/11/11 12:29:50;;;;;;;4.22;2.40;;;;;;;12.73;83.33;103079.66;5035402;28;100946;-30
2022/11/11 12:32:33;;;;;;;5.10;2.67;;;;;;;12.79;81.77;103080.38;5035292;28;100747;-30
2022/11/11 12:35:21;;;;;;;7.13;3.03;;;;;;;12.82;81.95;103074.81;5035497;28;96928;-30
2022/11/11 12:37:58;;;;;;;4.47;2.50;;;;;;;12.92;82.28;103073.56;5037212;28;96955;-31
2022/11/11 12:40:40;;;;;;;5.75;3.30;;;;;;;12.95;82.06;103074.34;5036720;28;97447;-30
2022/11/11 12:43:41;;;;;;;5.10;2.38;;;;;;;12.98;81.31;103067.00;5035102;28;101043;-31
2022/11/11 12:46:10;;;;;;;5.82;2.75;;;;;;;13.04;81.65;103072.22;5024305;27;98935;-31
2022/11/11 12:48:42;;;;;;;7.88;2.67;;;;;;;13.07;82.04;103075.72;5036577;28;96883;-31
2022/11/11 12:51:26;;;;;;;;;;;;;;;13.10;80.54;103078.31;5035482;28;101004;-31
2022/11/11 12:54:23;;;;;;;2.83;1.85;;;;;;;13.09;81.85;103075.69;5035169;28;101243;-30
2022/11/11 12:57:24;;;;;;;5.07;2.03;;;;;;;13.13;81.35;103061.91;5019345;28;96892;-32
2022/11/11 13:00:04;;;;;;;4.07;2.17;;;;;;;13.22;80.59;103065.22;5035185;27;96615;-31